Time;durP1;ratioP1;P1;durP2;ratioP2;P2;SDS_P1;SDS_P2;PMS_P1;PMS_P2;Temp;Humidity;BMP_temperature;BMP_pressure;BME280_temperature;BME280_humidity;BME280_pressure;Samples;Min_cycle;Max_cycle;Signal;HPM_P1;HPM_P2
2023/08/02 00:00:23;;;;;;;8.00;5.65;;;15.60;99.90;;;;;;5044913;28;20063;-76
2023/08/02 00:02:49;;;;;;;11.73;6.88;;;15.70;99.90;;;;;;5057526;28;20079;-75
2023/08/02 00:05:15;;;;;;;10.52;6.90;;;15.60;99.90;;;;;;5059376;28;20496;-75
2023/08/02 00:07:41;;;;;;;8.43;5.75;;;15.60;99.90;;;;;;5057376;28;20060;-75
2023/08/02 00:10:07;;;;;;;8.32;5.45;;;15.60;99.90;;;;;;5063659;28;20032;-75
2023/08/02 00:12:33;;;;;;;9.27;5.28;;;15.60;99.90;;;;;;5060594;28;20048;-76
2023/08/02 00:14:59;;;;;;;9.40;5.70;;;15.60;99.90;;;;;;5059744;28;20040;-75
2023/08/02 00:17:24;;;;;;;9.00;4.80;;;15.60;99.90;;;;;;5045424;28;20044;-75
2023/08/02 00:19:50;;;;;;;8.48;5.28;;;15.60;99.90;;;;;;5055700;28;20495;-75
2023/08/02 00:22:16;;;;;;;9.18;4.85;;;15.60;99.90;;;;;;5068687;28;20041;-76
2023/08/02 00:24:41;;;;;;;7.95;4.70;;;15.60;99.90;;;;;;5055400;28;20036;-76
2023/08/02 00:27:10;;;;;;;11.38;6.43;;;15.60;99.90;;;;;;5064262;28;20083;-75
2023/08/02 00:29:36;;;;;;;10.98;5.45;;;15.60;99.90;;;;;;5054548;28;20051;-75
2023/08/02 00:32:02;;;;;;;7.22;5.38;;;15.60;99.90;;;;;;5058804;28;20044;-75
2023/08/02 00:34:28;;;;;;;9.43;5.30;;;15.50;99.90;;;;;;5037528;28;20045;-75
2023/08/02 00:36:54;;;;;;;9.48;5.78;;;15.50;99.90;;;;;;5058813;28;20074;-75
2023/08/02 00:39:19;;;;;;;8.93;5.95;;;15.50;99.90;;;;;;5045246;28;20095;-75
2023/08/02 00:41:45;;;;;;;9.18;5.78;;;15.50;99.90;;;;;;5048148;28;20557;-75
2023/08/02 00:44:11;;;;;;;9.88;5.63;;;15.60;99.90;;;;;;5054618;28;20044;-76
2023/08/02 00:46:40;;;;;;;10.80;6.38;;;15.50;99.90;;;;;;5060987;28;20045;-75
2023/08/02 00:49:08;;;;;;;8.82;5.10;;;15.50;99.90;;;;;;5046149;28;20032;-75
2023/08/02 00:51:35;;;;;;;10.00;5.78;;;15.50;99.90;;;;;;5061091;28;20048;-75
2023/08/02 00:54:02;;;;;;;10.50;6.05;;;15.50;99.90;;;;;;5053207;28;20053;-76
2023/08/02 00:56:31;;;;;;;9.55;5.25;;;15.50;99.90;;;;;;5044802;28;20165;-75
2023/08/02 00:58:58;;;;;;;8.70;5.63;;;15.50;99.90;;;;;;5047327;28;20207;-75
2023/08/02 01:01:24;;;;;;;10.23;5.40;;;15.50;99.90;;;;;;5063763;28;20878;-76
2023/08/02 01:03:51;;;;;;;8.02;5.78;;;15.50;99.90;;;;;;5057737;28;20044;-75
2023/08/02 01:06:17;;;;;;;12.35;6.78;;;15.50;99.90;;;;;;5063966;28;20048;-77
2023/08/02 01:08:46;;;;;;;11.60;5.80;;;15.50;99.90;;;;;;5061690;28;20070;-76
2023/08/02 01:11:26;;;;;;;9.20;6.07;;;15.50;99.90;;;;;;5048018;28;20081;-76
2023/08/02 01:13:53;;;;;;;;;;;15.50;99.90;;;;;;5044620;28;20045;-76
2023/08/02 01:16:19;;;;;;;10.90;6.43;;;15.50;99.90;;;;;;5062843;28;19976;-76
2023/08/02 01:18:45;;;;;;;10.15;6.05;;;15.50;99.90;;;;;;5051809;28;20077;-76
2023/08/02 01:21:11;;;;;;;11.40;5.97;;;15.50;99.90;;;;;;5048915;28;20067;-76
2023/08/02 01:23:41;;;;;;;11.45;5.97;;;15.50;99.90;;;;;;5058751;28;20487;-76
2023/08/02 01:26:06;;;;;;;10.63;6.03;;;15.50;99.90;;;;;;5062292;28;20095;-76
2023/08/02 01:28:38;;;;;;;12.50;6.10;;;15.50;99.90;;;;;;5057299;28;20094;-75
2023/08/02 01:31:05;;;;;;;13.52;6.05;;;15.50;99.90;;;;;;5065275;28;20086;-75
2023/08/02 01:33:45;;;;;;;8.98;5.07;;;15.50;99.90;;;;;;5047174;28;20043;-76
2023/08/02 01:36:11;;;;;;;12.10;6.53;;;15.50;99.90;;;;;;5060148;28;20047;-76
2023/08/02 01:38:37;;;;;;;14.90;8.13;;;15.50;99.90;;;;;;5062560;28;20032;-76
2023/08/02 01:41:06;;;;;;;9.10;5.30;;;15.50;99.90;;;;;;5059573;28;20048;-76
2023/08/02 01:43:32;;;;;;;10.95;6.30;;;15.50;99.90;;;;;;5057016;28;20047;-76
2023/08/02 01:45:58;;;;;;;10.05;5.78;;;15.50;99.90;;;;;;5049728;28;20037;-76
2023/08/02 01:48:25;;;;;;;10.77;6.10;;;15.50;99.90;;;;;;5061524;28;20036;-75
2023/08/02 01:50:52;;;;;;;14.82;6.85;;;15.50;99.90;;;;;;5061095;28;20116;-76
2023/08/02 01:53:18;;;;;;;13.35;6.47;;;15.50;99.90;;;;;;5045555;28;20057;-75
2023/08/02 01:55:44;;;;;;;10.25;5.78;;;15.50;99.90;;;;;;5067532;28;20069;-75
2023/08/02 01:58:10;;;;;;;14.35;6.35;;;15.40;99.90;;;;;;5039277;28;20458;-75
2023/08/02 02:00:36;;;;;;;11.35;5.97;;;15.40;99.90;;;;;;5060866;28;20044;-75
2023/08/02 02:03:01;;;;;;;12.02;5.57;;;15.50;99.90;;;;;;5060820;28;20554;-75
2023/08/02 02:05:27;;;;;;;10.63;5.75;;;15.50;99.90;;;;;;5063789;28;20549;-75
2023/08/02 02:07:53;;;;;;;9.20;5.95;;;15.50;99.90;;;;;;5040483;28;20109;-75
2023/08/02 02:10:19;;;;;;;12.68;6.07;;;15.50;99.90;;;;;;5058236;28;20044;-75
2023/08/02 02:12:45;;;;;;;13.93;6.97;;;15.50;99.90;;;;;;5044564;28;20083;-75
2023/08/02 02:15:10;;;;;;;13.25;6.30;;;15.40;99.90;;;;;;5055950;28;20053;-75
2023/08/02 02:17:38;;;;;;;13.48;5.95;;;15.40;99.90;;;;;;5048570;28;20090;-75
2023/08/02 02:20:05;;;;;;;12.27;5.75;;;15.40;99.90;;;;;;5046954;28;20037;-75
2023/08/02 02:22:30;;;;;;;12.02;6.07;;;15.40;99.90;;;;;;5049561;28;20057;-75
2023/08/02 02:24:56;;;;;;;15.35;6.43;;;15.40;99.90;;;;;;5056319;28;20033;-75
2023/08/02 02:27:22;;;;;;;17.58;6.93;;;15.40;99.90;;;;;;5039706;28;20040;-75
2023/08/02 02:29:47;;;;;;;14.63;6.10;;;15.40;99.90;;;;;;5048115;28;20433;-75
2023/08/02 02:32:13;;;;;;;14.05;6.78;;;15.40;99.90;;;;;;5054387;28;20041;-75
2023/08/02 02:34:39;;;;;;;18.10;7.97;;;15.40;99.90;;;;;;5030318;28;20479;-75
2023/08/02 02:37:05;;;;;;;14.40;6.50;;;15.40;99.90;;;;;;5052840;28;20056;-75
2023/08/02 02:39:31;;;;;;;15.68;7.15;;;15.40;99.90;;;;;;5064531;28;20182;-75
2023/08/02 02:41:56;;;;;;;20.67;10.20;;;15.40;99.90;;;;;;5059497;28;20115;-75
2023/08/02 02:44:24;;;;;;;19.35;7.85;;;15.40;99.90;;;;;;5063836;28;20614;-75
2023/08/02 02:46:50;;;;;;;13.73;6.78;;;15.40;99.90;;;;;;5044719;28;20538;-75
2023/08/02 02:49:16;;;;;;;16.10;7.50;;;15.40;99.90;;;;;;5059627;28;20044;-75
2023/08/02 02:51:41;;;;;;;16.52;8.25;;;15.40;99.90;;;;;;5047668;28;20186;-75
2023/08/02 02:54:10;;;;;;;15.20;7.13;;;15.40;99.90;;;;;;5047609;28;20052;-75
2023/08/02 02:56:36;;;;;;;20.48;8.57;;;15.40;99.90;;;;;;5058882;28;20222;-74
2023/08/02 02:59:02;;;;;;;16.67;8.68;;;15.40;99.90;;;;;;5057150;28;20554;-75
2023/08/02 03:01:28;;;;;;;14.30;7.72;;;15.40;99.90;;;;;;5032429;28;20057;-75
2023/08/02 03:03:54;;;;;;;17.27;8.40;;;15.40;99.90;;;;;;5061643;28;20044;-75
2023/08/02 03:06:20;;;;;;;23.17;9.15;;;15.40;99.90;;;;;;5058461;28;20490;-76
2023/08/02 03:08:46;;;;;;;17.33;7.70;;;15.40;99.90;;;;;;5047100;28;20052;-75
2023/08/02 03:11:11;;;;;;;21.38;8.85;;;15.40;99.90;;;;;;5056321;28;20365;-75
2023/08/02 03:13:40;;;;;;;21.15;7.95;;;15.40;99.90;;;;;;5057682;28;20131;-76
2023/08/02 03:16:06;;;;;;;20.42;9.27;;;15.40;99.90;;;;;;5050141;28;20048;-75
2023/08/02 03:18:32;;;;;;;17.15;8.75;;;15.40;99.90;;;;;;5064768;28;20059;-75
2023/08/02 03:21:01;;;;;;;20.80;9.05;;;15.40;99.90;;;;;;5050898;28;20040;-75
2023/08/02 03:23:27;;;;;;;17.73;7.88;;;15.40;99.90;;;;;;5046816;28;20159;-74
2023/08/02 03:25:52;;;;;;;19.02;8.55;;;15.40;99.90;;;;;;5052562;28;20076;-75
2023/08/02 03:28:18;;;;;;;18.05;8.55;;;15.40;99.90;;;;;;5058210;28;20096;-75
2023/08/02 03:30:44;;;;;;;18.15;8.73;;;15.30;99.90;;;;;;5042360;28;20048;-75
2023/08/02 03:33:09;;;;;;;16.85;8.52;;;15.30;99.90;;;;;;5060924;28;20418;-75
2023/08/02 03:35:35;;;;;;;17.10;8.80;;;15.30;99.90;;;;;;5059805;28;20496;-75
2023/08/02 03:38:01;;;;;;;16.15;8.27;;;15.30;99.90;;;;;;5057408;28;20064;-75
2023/08/02 03:40:27;;;;;;;15.70;8.70;;;15.30;99.90;;;;;;5050163;28;20312;-76
2023/08/02 03:42:53;;;;;;;15.15;8.18;;;15.30;99.90;;;;;;5053616;28;20226;-75
2023/08/02 03:45:18;;;;;;;15.73;8.90;;;15.30;99.90;;;;;;5054693;28;20526;-75
2023/08/02 03:47:44;;;;;;;19.63;9.45;;;15.30;99.90;;;;;;5043328;28;20076;-75
2023/08/02 03:50:10;;;;;;;16.88;8.73;;;15.30;99.90;;;;;;5050805;28;20049;-76
2023/08/02 03:52:36;;;;;;;13.77;9.07;;;15.20;99.90;;;;;;5043406;28;20045;-75
2023/08/02 03:55:02;;;;;;;20.25;8.98;;;15.20;99.90;;;;;;5048861;28;20159;-76
2023/08/02 03:57:27;;;;;;;19.85;10.52;;;15.20;99.90;;;;;;5026362;28;20563;-75
2023/08/02 03:59:53;;;;;;;17.58;9.73;;;15.10;99.90;;;;;;5034629;28;20072;-76
2023/08/02 04:02:19;;;;;;;15.45;8.90;;;15.10;99.90;;;;;;5048430;28;20217;-75
2023/08/02 04:04:45;;;;;;;15.18;9.52;;;15.10;99.90;;;;;;5061504;28;20049;-75
2023/08/02 04:07:10;;;;;;;20.15;10.55;;;15.10;99.90;;;;;;5036017;28;20045;-75
2023/08/02 04:09:36;;;;;;;15.98;9.88;;;15.00;99.90;;;;;;5029487;28;20513;-75
2023/08/02 04:12:02;;;;;;;20.38;10.60;;;14.90;99.90;;;;;;5037574;28;20483;-76
2023/08/02 04:14:28;;;;;;;23.08;11.45;;;15.00;99.90;;;;;;5045584;28;20488;-76
2023/08/02 04:16:54;;;;;;;17.40;9.52;;;14.90;99.90;;;;;;5043336;28;20037;-75
2023/08/02 04:19:19;;;;;;;15.30;8.98;;;14.90;99.90;;;;;;5050339;28;20050;-75
2023/08/02 04:21:45;;;;;;;19.77;10.85;;;14.90;99.90;;;;;;5033833;28;20045;-75
2023/08/02 04:24:11;;;;;;;16.70;9.82;;;14.80;99.90;;;;;;5060359;28;20051;-76
2023/08/02 04:26:39;;;;;;;16.25;8.75;;;14.80;99.90;;;;;;5028017;28;20045;-75
2023/08/02 04:29:06;;;;;;;14.27;9.40;;;14.80;99.90;;;;;;5055966;28;20068;-75
2023/08/02 04:31:31;;;;;;;19.70;10.23;;;14.80;99.90;;;;;;5038067;28;20076;-76
2023/08/02 04:33:57;;;;;;;14.55;9.45;;;14.80;99.90;;;;;;5036214;28;20274;-75
2023/08/02 04:36:23;;;;;;;23.60;11.40;;;14.80;99.90;;;;;;5060924;28;20057;-75
2023/08/02 04:38:52;;;;;;;16.92;9.88;;;14.70;99.90;;;;;;5039754;28;20037;-75
2023/08/02 04:41:18;;;;;;;18.52;10.68;;;14.70;99.90;;;;;;5052863;28;20142;-75
2023/08/02 04:43:46;;;;;;;15.90;10.70;;;14.70;99.90;;;;;;5062991;28;20041;-75
2023/08/02 04:46:12;;;;;;;15.25;9.60;;;14.70;99.90;;;;;;5044966;28;20123;-75
2023/08/02 04:48:38;;;;;;;15.02;9.63;;;14.70;99.90;;;;;;5063530;28;20144;-75
2023/08/02 04:51:08;;;;;;;16.45;9.68;;;14.70;99.90;;;;;;5037155;28;20041;-75
2023/08/02 04:53:34;;;;;;;14.77;10.68;;;14.70;99.90;;;;;;5041157;28;20053;-76
2023/08/02 04:56:07;;;;;;;17.08;9.63;;;14.70;99.90;;;;;;5055979;28;20041;-75
2023/08/02 04:58:33;;;;;;;16.85;10.48;;;14.70;99.90;;;;;;5055246;28;20131;-75
2023/08/02 05:01:02;;;;;;;17.17;10.00;;;14.70;99.90;;;;;;5059745;28;20033;-75
2023/08/02 05:03:28;;;;;;;17.38;9.85;;;14.70;99.90;;;;;;5046421;28;20490;-75
2023/08/02 05:06:02;;;;;;;20.88;12.35;;;14.70;99.90;;;;;;5052848;28;20036;-78
2023/08/02 05:08:34;;;;;;;13.48;10.07;;;14.70;99.90;;;;;;5060504;28;20051;-75
2023/08/02 05:10:59;;;;;;;16.10;10.45;;;14.70;99.90;;;;;;5059764;28;20132;-75
2023/08/02 05:13:26;;;;;;;20.02;10.48;;;14.70;99.90;;;;;;5063330;28;20116;-75
2023/08/02 05:15:54;;;;;;;17.83;10.20;;;14.70;99.90;;;;;;5058774;28;20040;-75
2023/08/02 05:18:20;;;;;;;16.35;10.90;;;14.70;99.90;;;;;;5063593;28;20059;-75
2023/08/02 05:20:45;;;;;;;17.35;10.35;;;14.70;99.90;;;;;;5056155;28;20041;-74
2023/08/02 05:23:11;;;;;;;12.55;9.82;;;14.70;99.90;;;;;;5057329;28;20053;-75
2023/08/02 05:25:41;;;;;;;17.67;11.07;;;14.70;99.90;;;;;;5065321;28;20052;-75
2023/08/02 05:28:08;;;;;;;16.02;10.30;;;14.80;99.90;;;;;;5055685;28;20071;-75
2023/08/02 05:30:36;;;;;;;15.93;10.98;;;14.80;99.90;;;;;;5061681;28;20055;-75
2023/08/02 05:33:02;;;;;;;14.63;10.25;;;14.80;99.90;;;;;;5063735;28;20099;-75
2023/08/02 05:35:29;;;;;;;16.05;11.15;;;14.80;99.90;;;;;;5064658;28;20545;-75
2023/08/02 05:37:56;;;;;;;15.40;11.15;;;14.80;99.90;;;;;;5060689;28;20044;-75
2023/08/02 05:40:22;;;;;;;18.65;12.50;;;14.90;99.90;;;;;;5072762;28;20499;-75
2023/08/02 05:42:48;;;;;;;19.08;12.27;;;14.90;99.90;;;;;;5069348;28;20033;-75
2023/08/02 05:45:14;;;;;;;17.13;12.10;;;14.90;99.90;;;;;;5062766;28;20514;-75
2023/08/02 05:47:40;;;;;;;17.38;12.27;;;14.90;99.90;;;;;;5066897;28;20167;-75
2023/08/02 05:50:06;;;;;;;18.13;11.73;;;14.90;99.90;;;;;;5058405;28;20045;-76
2023/08/02 05:52:32;;;;;;;16.55;12.50;;;15.00;99.90;;;;;;5064690;28;20045;-75
2023/08/02 05:54:58;;;;;;;14.95;11.88;;;15.00;99.90;;;;;;5041307;28;20097;-75
2023/08/02 05:57:24;;;;;;;17.25;11.50;;;15.10;99.90;;;;;;5048617;28;20404;-74
2023/08/02 05:59:50;;;;;;;15.13;12.05;;;15.10;99.90;;;;;;5046816;28;20049;-75
2023/08/02 06:02:16;;;;;;;21.73;12.63;;;15.10;99.90;;;;;;5063187;28;20507;-75
2023/08/02 06:04:44;;;;;;;16.85;11.90;;;15.20;99.90;;;;;;5043135;28;20041;-75
2023/08/02 06:07:10;;;;;;;15.40;10.52;;;15.30;99.90;;;;;;5059816;28;20347;-74
2023/08/02 06:09:39;;;;;;;18.17;11.02;;;15.30;99.90;;;;;;5048484;28;20503;-75
2023/08/02 06:12:08;;;;;;;15.73;10.32;;;15.30;99.90;;;;;;5045721;28;20075;-75
2023/08/02 06:14:34;;;;;;;15.18;10.95;;;15.40;99.90;;;;;;5063653;28;20040;-75
2023/08/02 06:16:59;;;;;;;15.32;10.75;;;15.40;99.90;;;;;;5060289;28;20089;-75
2023/08/02 06:19:29;;;;;;;17.38;10.55;;;15.40;99.90;;;;;;5045001;28;20048;-75
2023/08/02 06:21:55;;;;;;;13.38;9.90;;;15.50;99.90;;;;;;5058561;28;20048;-75
2023/08/02 06:24:21;;;;;;;13.30;9.15;;;15.50;99.90;;;;;;5074246;28;20097;-75
2023/08/02 06:26:47;;;;;;;16.63;9.55;;;15.50;99.90;;;;;;5070953;28;20407;-75
2023/08/02 06:29:13;;;;;;;14.38;9.27;;;15.60;99.90;;;;;;5067362;28;20041;-75
2023/08/02 06:31:38;;;;;;;13.63;8.32;;;15.60;99.90;;;;;;5058586;28;20186;-76
2023/08/02 06:34:04;;;;;;;15.13;9.00;;;15.60;99.90;;;;;;5056648;28;20237;-75
2023/08/02 06:36:30;;;;;;;15.82;9.52;;;15.70;99.90;;;;;;5053294;28;20048;-75
2023/08/02 06:38:59;;;;;;;15.57;8.48;;;15.70;99.90;;;;;;5074889;28;20036;-76
2023/08/02 06:41:25;;;;;;;13.57;8.10;;;15.80;99.90;;;;;;5060527;28;20136;-75
2023/08/02 06:43:51;;;;;;;10.30;8.25;;;15.80;99.90;;;;;;5057913;28;20792;-76
2023/08/02 06:46:19;;;;;;;12.85;7.70;;;15.90;99.90;;;;;;5044632;28;20052;-76
2023/08/02 06:48:45;;;;;;;13.02;7.78;;;15.90;99.90;;;;;;5062262;28;20044;-76
2023/08/02 06:51:12;;;;;;;11.77;7.07;;;15.90;99.90;;;;;;5051529;28;20044;-76
2023/08/02 06:53:40;;;;;;;13.23;8.00;;;15.90;99.90;;;;;;5064009;28;20048;-75
2023/08/02 06:56:14;;;;;;;11.18;7.25;;;15.90;99.90;;;;;;5068336;28;20085;-75
2023/08/02 06:58:41;;;;;;;10.43;7.50;;;15.90;99.90;;;;;;5055614;28;20029;-75
2023/08/02 07:01:25;;;;;;;11.38;7.03;;;15.90;99.90;;;;;;5061914;28;20517;-76
2023/08/02 07:03:51;;;;;;;11.38;7.63;;;15.80;99.90;;;;;;5058625;28;20085;-75
2023/08/02 07:06:19;;;;;;;11.95;6.72;;;15.80;99.90;;;;;;5040924;28;20052;-76
2023/08/02 07:08:46;;;;;;;13.77;6.75;;;15.80;99.90;;;;;;5047814;28;20038;-76
2023/08/02 07:11:12;;;;;;;10.70;6.90;;;15.80;99.90;;;;;;5046874;28;20063;-75
2023/08/02 07:13:43;;;;;;;12.00;7.60;;;15.80;99.90;;;;;;5041578;28;20123;-75
2023/08/02 07:16:09;;;;;;;11.15;6.78;;;15.80;99.90;;;;;;5042797;28;20036;-75
2023/08/02 07:18:35;;;;;;;10.48;6.38;;;15.80;99.90;;;;;;5049951;28;20099;-75
2023/08/02 07:21:08;;;;;;;9.38;5.57;;;15.80;99.90;;;;;;5045984;28;20072;-76
2023/08/02 07:23:35;;;;;;;10.85;6.15;;;15.80;99.90;;;;;;5072347;28;20048;-75
2023/08/02 07:26:01;;;;;;;11.25;6.85;;;15.80;99.90;;;;;;5055365;28;20047;-75
2023/08/02 07:28:27;;;;;;;10.07;5.93;;;15.80;99.90;;;;;;5042685;28;20050;-75
2023/08/02 07:30:53;;;;;;;9.25;5.93;;;15.80;99.90;;;;;;5062381;28;20399;-76
2023/08/02 07:33:21;;;;;;;12.43;6.57;;;15.90;99.90;;;;;;5058391;28;20507;-77
2023/08/02 07:35:47;;;;;;;9.25;5.22;;;15.90;99.90;;;;;;5056884;28;20041;-76
2023/08/02 07:38:14;;;;;;;9.48;5.57;;;15.90;99.90;;;;;;5042098;28;20039;-76
2023/08/02 07:40:42;;;;;;;10.32;6.32;;;15.90;99.90;;;;;;5055361;28;20040;-78
2023/08/02 07:43:09;;;;;;;10.63;6.28;;;16.00;99.90;;;;;;5058185;28;20115;-76
2023/08/02 07:45:35;;;;;;;11.02;6.15;;;16.00;99.90;;;;;;5059432;28;20856;-76
2023/08/02 07:48:00;;;;;;;11.05;6.47;;;16.00;99.90;;;;;;5043554;28;20147;-75
2023/08/02 07:50:26;;;;;;;12.05;6.90;;;15.90;99.90;;;;;;5044826;28;20094;-75
2023/08/02 07:52:52;;;;;;;14.40;8.10;;;16.00;99.90;;;;;;5054302;28;20037;-75
2023/08/02 07:55:17;;;;;;;16.05;7.68;;;15.90;99.90;;;;;;5059814;28;20040;-75
2023/08/02 07:57:43;;;;;;;13.68;7.50;;;15.90;99.90;;;;;;5041600;28;20102;-76
2023/08/02 08:00:10;;;;;;;12.45;7.53;;;15.90;99.90;;;;;;5060767;28;20098;-76
2023/08/02 08:02:35;;;;;;;12.80;7.72;;;15.90;99.90;;;;;;5059093;28;20446;-76
2023/08/02 08:05:01;;;;;;;15.60;7.45;;;15.80;99.90;;;;;;5063582;28;20338;-76
2023/08/02 08:07:27;;;;;;;15.25;7.78;;;15.80;99.90;;;;;;5048040;28;20446;-76
2023/08/02 08:09:53;;;;;;;17.83;9.02;;;15.70;99.90;;;;;;5063076;28;20059;-75
2023/08/02 08:12:19;;;;;;;11.68;7.22;;;15.60;99.90;;;;;;5044172;28;20532;-76
2023/08/02 08:14:44;;;;;;;10.02;6.63;;;15.70;99.90;;;;;;5060050;28;20261;-75
2023/08/02 08:17:10;;;;;;;17.65;7.60;;;15.60;99.90;;;;;;5047432;28;20037;-75
2023/08/02 08:19:36;;;;;;;12.65;7.35;;;15.60;99.90;;;;;;5053876;28;20499;-75
2023/08/02 08:22:02;;;;;;;12.65;7.65;;;15.60;99.90;;;;;;5057568;28;20033;-75
2023/08/02 08:24:28;;;;;;;12.00;7.75;;;15.60;99.90;;;;;;5057078;28;20289;-75
2023/08/02 08:26:57;;;;;;;13.60;7.95;;;15.50;99.90;;;;;;5043955;28;20550;-75
2023/08/02 08:29:23;;;;;;;13.40;7.93;;;15.50;99.90;;;;;;5058474;28;20570;-75
2023/08/02 08:31:48;;;;;;;15.95;8.05;;;15.50;99.90;;;;;;5058398;28;20370;-75
2023/08/02 08:34:14;;;;;;;14.65;8.30;;;15.40;99.90;;;;;;5043021;28;20048;-75
2023/08/02 08:36:40;;;;;;;17.23;9.50;;;15.40;99.90;;;;;;5048568;28;20454;-75
2023/08/02 08:39:06;;;;;;;13.93;8.20;;;15.40;99.90;;;;;;5043103;28;20037;-75
2023/08/02 08:41:32;;;;;;;13.07;8.35;;;15.40;99.90;;;;;;5053126;28;20062;-75
2023/08/02 08:44:00;;;;;;;12.90;8.15;;;15.40;99.90;;;;;;5064118;28;20045;-75
2023/08/02 08:46:29;;;;;;;12.75;7.47;;;15.40;99.90;;;;;;5055910;28;20052;-75
2023/08/02 08:49:01;;;;;;;14.27;8.55;;;15.40;99.90;;;;;;5037179;28;20057;-75
2023/08/02 08:51:29;;;;;;;13.43;7.97;;;15.40;99.90;;;;;;5054705;28;20376;-75
2023/08/02 08:53:57;;;;;;;12.70;8.40;;;15.40;99.90;;;;;;5047218;28;20388;-76
2023/08/02 08:56:24;;;;;;;14.55;8.45;;;15.40;99.90;;;;;;5053963;28;20695;-75
2023/08/02 08:58:53;;;;;;;13.70;8.50;;;15.50;99.90;;;;;;5042788;28;20380;-76
2023/08/02 09:01:19;;;;;;;20.55;11.13;;;15.50;99.90;;;;;;5042482;28;20101;-76
2023/08/02 09:03:45;;;;;;;14.57;9.75;;;15.50;99.90;;;;;;5056213;28;20056;-76
2023/08/02 09:06:15;;;;;;;15.95;8.95;;;15.50;99.90;;;;;;5046871;28;20528;-75
2023/08/02 09:08:47;;;;;;;19.35;11.43;;;15.60;99.90;;;;;;5059176;28;20106;-75
2023/08/02 09:11:15;;;;;;;16.10;10.73;;;15.60;99.90;;;;;;5047814;28;20048;-76
2023/08/02 09:13:41;;;;;;;13.88;9.82;;;15.60;99.90;;;;;;5069685;28;20048;-75
2023/08/02 09:16:12;;;;;;;16.40;10.00;;;15.60;99.90;;;;;;5062329;28;20863;-75
2023/08/02 09:18:42;;;;;;;15.95;10.55;;;15.70;99.90;;;;;;5058157;28;20045;-76
2023/08/02 09:21:15;;;;;;;18.17;10.68;;;15.60;99.90;;;;;;5064682;28;20033;-75
2023/08/02 09:24:10;;;;;;;15.40;10.90;;;15.60;99.90;;;;;;5046893;28;20037;-75
2023/08/02 09:26:35;;;;;;;14.40;9.73;;;15.70;99.90;;;;;;5066801;28;20414;-75
2023/08/02 09:29:06;;;;;;;14.40;9.90;;;15.70;99.90;;;;;;5060302;28;20040;-75
2023/08/02 09:31:34;;;;;;;16.05;10.40;;;15.60;99.90;;;;;;5069480;28;20106;-75
2023/08/02 09:34:03;;;;;;;14.45;10.30;;;15.70;99.90;;;;;;5075026;28;20040;-76
2023/08/02 09:36:31;;;;;;;13.20;10.87;;;15.80;99.90;;;;;;5062237;28;20052;-76
2023/08/02 09:39:01;;;;;;;13.40;9.93;;;15.90;99.90;;;;;;5064352;28;20047;-76
2023/08/02 09:41:27;;;;;;;12.68;9.57;;;16.00;99.90;;;;;;5041390;28;20452;-76
2023/08/02 09:43:53;;;;;;;13.45;9.80;;;16.10;99.90;;;;;;5048630;28;20055;-76
2023/08/02 09:46:35;;;;;;;12.60;8.65;;;16.10;99.90;;;;;;5054662;28;20036;-76
2023/08/02 09:49:21;;;;;;;12.73;9.95;;;16.20;99.90;;;;;;5077307;28;20045;-78
2023/08/02 09:51:47;;;;;;;10.27;9.05;;;16.10;99.90;;;;;;5045384;28;20049;-76
2023/08/02 09:54:14;;;;;;;10.98;9.82;;;16.10;99.90;;;;;;5041387;28;20056;-76
2023/08/02 09:56:42;;;;;;;13.68;10.30;;;16.10;99.90;;;;;;5066184;28;20052;-76
2023/08/02 09:59:12;;;;;;;12.85;10.68;;;16.10;99.90;;;;;;5044769;28;20130;-76
2023/08/02 10:01:38;;;;;;;;;;;16.10;99.90;;;;;;5047408;28;20633;-76
2023/08/02 10:04:10;;;;;;;13.82;11.30;;;16.20;99.90;;;;;;5059373;28;20290;-77
2023/08/02 10:06:43;;;;;;;11.80;9.57;;;16.10;99.90;;;;;;5044877;28;20037;-77
2023/08/02 10:09:11;;;;;;;12.75;10.57;;;16.10;99.90;;;;;;5060581;28;20415;-76
2023/08/02 10:11:57;;;;;;;12.25;9.90;;;16.20;99.90;;;;;;5065995;28;20032;-76
2023/08/02 10:14:26;;;;;;;10.20;8.65;;;16.30;99.90;;;;;;5057543;28;20041;-77
2023/08/02 10:16:53;;;;;;;8.97;7.93;;;16.30;99.90;;;;;;5058282;28;20077;-76
2023/08/02 10:19:20;;;;;;;9.05;7.95;;;16.30;99.90;;;;;;5061166;28;20286;-77
2023/08/02 10:21:47;;;;;;;7.93;7.10;;;16.30;99.90;;;;;;5061070;28;20041;-77
2023/08/02 10:24:13;;;;;;;6.80;6.10;;;16.30;99.90;;;;;;5053099;28;20106;-77
2023/08/02 10:26:40;;;;;;;9.15;6.85;;;16.30;99.90;;;;;;5058049;28;20503;-76
2023/08/02 10:29:12;;;;;;;6.05;5.38;;;16.30;99.90;;;;;;5044958;28;20042;-76
2023/08/02 10:31:40;;;;;;;7.03;5.50;;;16.40;99.90;;;;;;5057542;28;20532;-75
2023/08/02 10:34:51;;;;;;;5.07;3.95;;;16.40;99.90;;;;;;5066938;28;20040;-76
2023/08/02 10:37:18;;;;;;;5.07;4.10;;;16.40;99.90;;;;;;5035090;28;20036;-76
2023/08/02 10:39:53;;;;;;;5.07;3.85;;;16.40;99.90;;;;;;5043392;28;20984;-77
2023/08/02 10:42:31;;;;;;;6.80;3.78;;;16.40;99.90;;;;;;5058250;28;20847;-76
2023/08/02 10:44:57;;;;;;;5.53;4.47;;;16.40;99.90;;;;;;5038498;28;20631;-74
2023/08/02 10:47:31;;;;;;;5.18;3.58;;;16.40;99.90;;;;;;5050875;28;20104;-74
2023/08/02 10:49:59;;;;;;;5.40;4.38;;;16.50;99.90;;;;;;5057926;28;20510;-74
2023/08/02 10:52:32;;;;;;;5.82;4.20;;;16.60;99.90;;;;;;5063939;28;20151;-74
2023/08/02 10:55:13;;;;;;;4.97;4.10;;;16.60;99.90;;;;;;5056566;28;20137;-75
2023/08/02 10:58:06;;;;;;;6.60;5.28;;;16.60;99.90;;;;;;5066970;28;20367;-74
2023/08/02 11:00:34;;;;;;;6.10;4.00;;;16.70;99.90;;;;;;5053167;28;20067;-75
2023/08/02 11:03:03;;;;;;;6.10;4.18;;;16.70;99.90;;;;;;5059651;28;20045;-74
2023/08/02 11:05:43;;;;;;;7.75;3.75;;;16.80;99.90;;;;;;5056829;28;20483;-74
2023/08/02 11:08:10;;;;;;;4.68;4.10;;;16.80;99.90;;;;;;5054866;28;20564;-74
2023/08/02 11:10:52;;;;;;;4.22;3.78;;;16.90;99.90;;;;;;5064647;28;20443;-75
2023/08/02 11:13:19;;;;;;;4.28;3.55;;;16.90;99.90;;;;;;5058802;28;20404;-76
2023/08/02 11:15:45;;;;;;;4.22;3.20;;;17.00;99.90;;;;;;5057982;28;20079;-76
2023/08/02 11:18:12;;;;;;;3.97;3.33;;;17.00;99.90;;;;;;5050801;28;20071;-75
2023/08/02 11:20:40;;;;;;;4.03;3.05;;;17.10;99.90;;;;;;5050671;28;20056;-76
2023/08/02 11:23:23;;;;;;;4.85;3.55;;;17.00;99.90;;;;;;5040445;28;20041;-75
2023/08/02 11:26:10;;;;;;;3.97;3.25;;;17.00;99.90;;;;;;5072527;28;20554;-75
2023/08/02 11:28:52;;;;;;;3.65;2.83;;;17.00;99.90;;;;;;5062066;28;20052;-75
2023/08/02 11:31:21;;;;;;;3.28;2.97;;;17.00;99.90;;;;;;5042827;28;20048;-75
2023/08/02 11:33:47;;;;;;;4.22;3.47;;;17.00;99.90;;;;;;5060393;28;20043;-76
2023/08/02 11:36:13;;;;;;;4.55;3.65;;;17.10;99.90;;;;;;5050349;28;20045;-76
2023/08/02 11:38:39;;;;;;;3.80;3.33;;;17.20;99.90;;;;;;5062112;28;20044;-76
2023/08/02 11:41:19;;;;;;;5.90;3.92;;;17.20;99.90;;;;;;5061926;28;20032;-75
2023/08/02 11:43:46;;;;;;;5.78;5.20;;;17.40;99.90;;;;;;5062085;28;20075;-76
2023/08/02 11:46:25;;;;;;;4.63;4.13;;;17.50;99.90;;;;;;5068581;28;20040;-76
2023/08/02 11:48:52;;;;;;;5.10;4.70;;;17.90;99.90;;;;;;5059939;28;20040;-76
2023/08/02 11:51:21;;;;;;;4.15;3.75;;;18.10;99.90;;;;;;5057151;28;20549;-75
2023/08/02 11:53:57;;;;;;;6.03;4.18;;;18.30;99.90;;;;;;5045331;28;20080;-75
2023/08/02 11:56:27;;;;;;;4.95;4.10;;;18.50;99.90;;;;;;5056562;28;20496;-75
2023/08/02 11:58:53;;;;;;;;;;;18.60;99.90;;;;;;5045675;28;20036;-75
2023/08/02 12:01:19;;;;;;;4.25;3.85;;;18.70;99.90;;;;;;5054898;28;19920;-75
2023/08/02 12:04:00;;;;;;;5.10;4.43;;;18.70;99.90;;;;;;5057529;28;20055;-75
2023/08/02 12:06:27;;;;;;;4.38;3.83;;;18.70;99.90;;;;;;5040809;28;20048;-75
2023/08/02 12:08:57;;;;;;;4.75;4.32;;;18.70;99.90;;;;;;5053982;28;20477;-76
2023/08/02 12:11:23;;;;;;;4.57;4.18;;;18.70;99.90;;;;;;5054837;28;20036;-75
2023/08/02 12:13:49;;;;;;;4.47;4.07;;;18.80;99.90;;;;;;5061308;28;20380;-75
2023/08/02 12:16:16;;;;;;;5.07;4.07;;;18.80;99.90;;;;;;5057418;28;20048;-75
2023/08/02 12:18:51;;;;;;;5.88;4.40;;;18.70;99.90;;;;;;5043190;28;20046;-76
2023/08/02 12:21:18;;;;;;;5.60;4.75;;;18.60;99.90;;;;;;5058429;28;20519;-76
2023/08/02 12:23:44;;;;;;;6.03;5.47;;;18.60;99.90;;;;;;5047482;28;20044;-76
2023/08/02 12:26:10;;;;;;;5.60;5.10;;;18.50;99.90;;;;;;5049599;28;20522;-75
2023/08/02 12:28:47;;;;;;;5.97;5.47;;;18.60;99.90;;;;;;5042327;28;20040;-76
2023/08/02 12:31:14;;;;;;;7.38;6.68;;;18.60;99.90;;;;;;5039864;28;20041;-76
2023/08/02 12:33:40;;;;;;;6.65;6.05;;;18.70;99.90;;;;;;5055659;28;20110;-76
2023/08/02 12:36:07;;;;;;;5.97;5.38;;;18.80;99.90;;;;;;5044488;28;20032;-76
2023/08/02 12:38:34;;;;;;;5.90;5.40;;;18.90;99.90;;;;;;5038886;28;20076;-76
2023/08/02 12:41:03;;;;;;;5.82;5.25;;;19.10;99.90;;;;;;5061240;28;20081;-76